createdAt,value
2018-11-07T00:00:00.862Z,92.69
2018-11-07T00:02:30.227Z,92.45
2018-11-07T00:04:59.296Z,93.64
2018-11-07T00:07:28.552Z,93.76
2018-11-07T00:10:03.459Z,93.21
2018-11-07T00:12:32.884Z,92.68
2018-11-07T00:15:01.570Z,92.51
2018-11-07T00:17:31.818Z,92.93
2018-11-07T00:20:00.917Z,93.60
2018-11-07T00:22:29.674Z,92.52
2018-11-07T00:24:58.833Z,92.59
2018-11-07T00:27:28.320Z,92.47
2018-11-07T00:29:57.168Z,93.10
2018-11-07T00:32:26.187Z,93.18
2018-11-07T00:34:54.651Z,92.71
2018-11-07T00:37:23.829Z,93.27
2018-11-07T00:39:53.489Z,93.02
2018-11-07T00:42:22.028Z,91.96
2018-11-07T00:44:50.764Z,92.57
2018-11-07T00:47:19.628Z,92.03
2018-11-07T00:49:48.348Z,92.44
2018-11-07T00:52:17.344Z,92.38
2018-11-07T00:54:47.734Z,91.60
2018-11-07T00:57:16.321Z,91.97
2018-11-07T00:59:46.382Z,92.28
2018-11-07T01:02:15.427Z,92.02
2018-11-07T01:04:45.246Z,92.37
2018-11-07T01:07:14.071Z,92.59
2018-11-07T01:09:43.396Z,92.39
2018-11-07T01:12:11.964Z,92.20
2018-11-07T01:14:40.633Z,92.85
2018-11-07T01:17:09.305Z,92.72
2018-11-07T01:19:39.099Z,92.34
2018-11-07T01:22:07.815Z,92.04
2018-11-07T01:24:36.264Z,92.69
2018-11-07T01:27:05.745Z,91.96
2018-11-07T01:29:34.263Z,91.99
2018-11-07T01:32:03.040Z,92.41
2018-11-07T01:34:31.508Z,92.73
2018-11-07T01:36:59.996Z,93.33
2018-11-07T01:39:28.699Z,92.98
2018-11-07T01:41:57.624Z,92.99
2018-11-07T01:44:26.195Z,93.08
2018-11-07T01:46:54.676Z,93.10
2018-11-07T01:49:23.192Z,93.46
2018-11-07T01:51:52.119Z,93.78
2018-11-07T01:54:20.903Z,93.93
2018-11-07T01:56:50.217Z,93.52
2018-11-07T01:59:19.518Z,93.18
2018-11-07T02:01:48.024Z,93.39
2018-11-07T02:04:16.608Z,92.73
2018-11-07T02:06:45.658Z,93.85
2018-11-07T02:09:14.702Z,92.78
2018-11-07T02:11:44.230Z,92.95
2018-11-07T02:14:12.714Z,93.51
2018-11-07T02:16:41.508Z,93.60
2018-11-07T02:19:10.523Z,93.81
2018-11-07T02:21:39.113Z,93.60
2018-11-07T02:24:08.108Z,93.32
2018-11-07T02:26:36.992Z,93.47
2018-11-07T02:29:11.672Z,92.49
2018-11-07T02:31:41.510Z,92.32
2018-11-07T02:34:10.019Z,93.27
2018-11-07T02:36:39.189Z,93.60
2018-11-07T02:39:10.820Z,93.21
2018-11-07T02:41:39.895Z,93.01
2018-11-07T02:44:08.882Z,93.38
2018-11-07T02:46:37.299Z,93.13
2018-11-07T02:49:05.728Z,93.65
2018-11-07T02:51:34.939Z,92.94
2018-11-07T02:54:03.515Z,92.74
2018-11-07T02:56:32.542Z,93.14
2018-11-07T02:59:01.486Z,93.14
2018-11-07T03:01:30.149Z,93.12
2018-11-07T03:03:59.288Z,93.29
2018-11-07T03:06:27.743Z,93.53
2018-11-07T03:08:58.182Z,93.88
2018-11-07T03:11:27.080Z,93.91
2018-11-07T03:13:55.618Z,93.57
2018-11-07T03:16:24.455Z,94.19
2018-11-07T03:18:53.290Z,94.34
2018-11-07T03:21:22.425Z,94.51
2018-11-07T03:23:51.711Z,94.41
2018-11-07T03:26:21.632Z,94.47
2018-11-07T03:28:50.502Z,94.88
2018-11-07T03:31:18.995Z,94.45
2018-11-07T03:33:47.495Z,94.77
2018-11-07T03:36:16.113Z,94.75
2018-11-07T03:38:45.667Z,94.85
2018-11-07T03:41:14.382Z,94.42
2018-11-07T03:43:42.838Z,95.09
2018-11-07T03:46:11.251Z,95.74
2018-11-07T03:48:39.906Z,96.20
2018-11-07T03:51:09.999Z,96.20
2018-11-07T03:53:38.946Z,96.20
2018-11-07T03:56:07.446Z,95.26
2018-11-07T03:58:36.827Z,96.01
2018-11-07T04:01:05.394Z,94.75
2018-11-07T04:03:33.828Z,95.26
2018-11-07T04:06:02.839Z,95.55
2018-11-07T04:08:31.990Z,95.47
2018-11-07T04:11:00.411Z,96.44
2018-11-07T04:13:29.237Z,96.35
2018-11-07T04:15:58.674Z,96.19
2018-11-07T04:18:27.171Z,96.42
2018-11-07T04:20:55.946Z,96.50
2018-11-07T04:23:24.525Z,97.21
2018-11-07T04:25:53.388Z,97.33
2018-11-07T04:28:21.831Z,97.17
2018-11-07T04:30:50.310Z,97.06
2018-11-07T04:33:19.710Z,97.30
2018-11-07T04:35:48.788Z,97.32
2018-11-07T04:38:17.350Z,97.29
2018-11-07T04:40:45.890Z,96.50
2018-11-07T04:43:15.006Z,96.32
2018-11-07T04:45:43.435Z,96.63
2018-11-07T04:48:11.879Z,97.77
2018-11-07T04:50:41.326Z,96.96
2018-11-07T04:53:09.895Z,98.25
2018-11-07T04:55:38.412Z,98.62
2018-11-07T04:58:06.964Z,98.67
2018-11-07T05:00:35.845Z,98.13
2018-11-07T05:03:04.836Z,97.18
2018-11-07T05:05:33.747Z,96.91
2018-11-07T05:08:02.393Z,96.39
2018-11-07T05:10:30.992Z,95.93
2018-11-07T05:13:00.321Z,96.73
2018-11-07T05:15:29.305Z,95.73
2018-11-07T05:17:57.883Z,95.63
2018-11-07T05:20:26.760Z,95.28
2018-11-07T05:22:55.400Z,96.27
2018-11-07T05:25:23.829Z,95.73
2018-11-07T05:27:52.330Z,95.75
2018-11-07T05:30:20.787Z,96.00
2018-11-07T05:32:49.255Z,96.75
2018-11-07T05:35:17.773Z,96.21
2018-11-07T05:37:46.220Z,96.77
2018-11-07T05:40:14.619Z,97.32
2018-11-07T05:42:43.650Z,96.52
2018-11-07T05:45:12.277Z,96.19
2018-11-07T05:47:40.959Z,96.05
2018-11-07T05:50:10.795Z,95.70
2018-11-07T05:52:40.097Z,96.28
2018-11-07T05:55:09.330Z,95.86
2018-11-07T05:57:38.259Z,96.27
2018-11-07T06:00:09.507Z,96.92
2018-11-07T06:02:38.119Z,96.72
2018-11-07T06:05:08.343Z,97.04
2018-11-07T06:07:38.642Z,96.55
2018-11-07T06:10:10.186Z,97.02
2018-11-07T06:12:38.974Z,97.23
2018-11-07T06:15:09.683Z,96.99
2018-11-07T06:17:38.445Z,97.21
2018-11-07T06:20:08.384Z,97.12
2018-11-07T06:22:37.583Z,96.96
2018-11-07T06:25:07.618Z,96.43
2018-11-07T06:27:36.020Z,96.67
2018-11-07T06:30:07.419Z,96.72
2018-11-07T06:32:36.166Z,96.55
2018-11-07T06:35:06.624Z,96.76
2018-11-07T06:37:35.127Z,96.15
2018-11-07T06:40:05.456Z,96.40
2018-11-07T06:42:34.519Z,96.29
2018-11-07T06:45:03.095Z,96.63
2018-11-07T06:47:31.920Z,95.57
2018-11-07T06:50:00.533Z,95.31
2018-11-07T06:52:29.344Z,95.78
2018-11-07T06:54:58.696Z,96.15
2018-11-07T06:57:27.360Z,95.22
2018-11-07T06:59:55.802Z,95.48
2018-11-07T07:02:24.476Z,95.90
2018-11-07T07:04:52.940Z,95.42
2018-11-07T07:07:21.418Z,94.11
2018-11-07T07:09:50.721Z,94.90
2018-11-07T07:12:19.287Z,94.88
2018-11-07T07:14:47.945Z,95.44
2018-11-07T07:17:16.711Z,95.68
2018-11-07T07:19:45.352Z,95.81
2018-11-07T07:22:14.696Z,95.74
2018-11-07T07:24:43.649Z,96.51
2018-11-07T07:27:12.731Z,95.59
2018-11-07T07:29:41.241Z,95.07
2018-11-07T07:32:10.004Z,94.25
2018-11-07T07:34:38.836Z,93.72
2018-11-07T07:37:08.615Z,93.78
2018-11-07T07:39:37.457Z,92.74
2018-11-07T07:42:06.181Z,92.71
2018-11-07T07:44:34.926Z,92.27
2018-11-07T07:47:03.469Z,91.03
2018-11-07T07:49:32.809Z,91.39
2018-11-07T07:52:01.457Z,90.27
2018-11-07T07:54:30.435Z,89.65
2018-11-07T07:56:59.397Z,88.15
2018-11-07T07:59:27.872Z,87.08
2018-11-07T08:01:56.336Z,87.39
2018-11-07T08:04:24.981Z,86.97
2018-11-07T08:06:53.732Z,85.98
2018-11-07T08:09:22.955Z,85.15
2018-11-07T08:11:51.610Z,84.27
2018-11-07T08:14:20.041Z,83.75
2018-11-07T08:16:48.492Z,83.77
2018-11-07T08:19:16.949Z,82.42
2018-11-07T08:21:45.663Z,82.53
2018-11-07T08:24:14.412Z,81.41
2018-11-07T08:26:42.979Z,80.81
2018-11-07T08:29:11.755Z,79.92
2018-11-07T08:31:40.720Z,79.52
2018-11-07T08:34:09.424Z,79.85
2018-11-07T08:36:38.394Z,78.68
2018-11-07T08:39:10.338Z,77.10
2018-11-07T08:41:39.558Z,77.52
2018-11-07T08:44:08.309Z,77.16
2018-11-07T08:46:37.384Z,77.13
2018-11-07T08:49:06.061Z,76.46
2018-11-07T08:51:35.645Z,75.86
2018-11-07T08:54:04.605Z,75.18
2018-11-07T08:56:33.067Z,75.51
2018-11-07T08:59:01.990Z,74.84
2018-11-07T09:01:30.930Z,75.07
2018-11-07T09:03:59.465Z,75.45
2018-11-07T09:06:28.119Z,73.61
2018-11-07T09:08:56.685Z,74.38
2018-11-07T09:11:25.394Z,74.19
2018-11-07T09:13:53.888Z,74.74
2018-11-07T09:16:22.736Z,73.58
2018-11-07T09:18:51.166Z,73.89
2018-11-07T09:21:19.571Z,73.99
2018-11-07T09:23:47.979Z,72.73
2018-11-07T09:26:17.201Z,73.50
2018-11-07T09:28:46.386Z,73.20
2018-11-07T09:31:15.225Z,72.49
2018-11-07T09:33:43.638Z,72.42
2018-11-07T09:36:12.038Z,71.06
2018-11-07T09:38:40.731Z,71.28
2018-11-07T09:41:09.471Z,71.39
2018-11-07T09:43:38.053Z,71.39
2018-11-07T09:46:08.382Z,71.06
2018-11-07T09:48:37.093Z,71.01
2018-11-07T09:51:06.005Z,70.21
2018-11-07T09:53:34.766Z,70.17
2018-11-07T09:56:03.256Z,69.72
2018-11-07T09:58:31.689Z,69.53
2018-11-07T10:01:01.404Z,69.43
2018-11-07T10:03:29.864Z,69.08
2018-11-07T10:05:58.658Z,68.90
2018-11-07T10:08:28.660Z,68.84
2018-11-07T10:10:57.497Z,68.25
2018-11-07T10:13:27.110Z,67.70
2018-11-07T10:15:56.441Z,66.71
2018-11-07T10:18:27.217Z,67.04
2018-11-07T10:20:55.894Z,65.91
2018-11-07T10:23:24.794Z,65.00
2018-11-07T10:25:53.253Z,64.57
2018-11-07T10:28:22.094Z,64.35
2018-11-07T10:30:50.545Z,64.06
2018-11-07T10:33:19.409Z,63.97
2018-11-07T10:35:47.869Z,63.98
2018-11-07T10:38:16.427Z,62.79
2018-11-07T10:40:44.830Z,62.69
2018-11-07T10:43:13.370Z,61.22
2018-11-07T10:45:41.781Z,61.50
2018-11-07T10:48:10.202Z,60.55
2018-11-07T10:50:38.850Z,61.10
2018-11-07T10:53:07.917Z,60.12
2018-11-07T10:55:36.295Z,59.35
2018-11-07T10:58:05.864Z,59.03
2018-11-07T11:00:40.221Z,58.30
2018-11-07T11:03:14.370Z,58.10
2018-11-07T11:05:43.434Z,56.92
2018-11-07T11:08:12.213Z,56.24
2018-11-07T11:10:41.813Z,54.18
2018-11-07T11:13:10.784Z,53.72
2018-11-07T11:15:39.193Z,53.39
2018-11-07T11:18:07.674Z,52.94
2018-11-07T11:20:40.497Z,52.15
2018-11-07T11:23:09.052Z,51.79
2018-11-07T11:25:37.887Z,50.57
2018-11-07T11:28:06.512Z,50.70
2018-11-07T11:30:34.981Z,51.31
2018-11-07T11:33:04.010Z,51.74
2018-11-07T11:35:32.785Z,50.12
2018-11-07T11:38:01.560Z,49.81
2018-11-07T11:40:30.763Z,50.66
2018-11-07T11:42:59.753Z,50.26
2018-11-07T11:45:28.142Z,49.37
2018-11-07T11:47:56.517Z,49.51
2018-11-07T11:50:25.089Z,49.34
2018-11-07T11:52:53.570Z,49.30
2018-11-07T11:55:23.137Z,48.88
2018-11-07T11:57:51.522Z,48.56
2018-11-07T12:00:21.393Z,48.49
2018-11-07T12:02:49.944Z,47.32
2018-11-07T12:05:19.106Z,47.52
2018-11-07T12:07:47.611Z,47.11
2018-11-07T12:10:19.722Z,47.58
2018-11-07T12:12:50.460Z,47.09
2018-11-07T12:15:19.986Z,46.93
2018-11-07T12:17:49.225Z,46.45
2018-11-07T12:20:18.038Z,45.83
2018-11-07T12:22:46.424Z,45.65
2018-11-07T12:25:15.919Z,46.06
2018-11-07T12:27:44.601Z,46.12
2018-11-07T12:30:15.803Z,46.29
2018-11-07T12:32:45.668Z,46.21
2018-11-07T12:35:15.263Z,45.34
2018-11-07T12:37:43.669Z,46.04
2018-11-07T12:40:12.964Z,46.20
2018-11-07T12:42:41.640Z,45.60
2018-11-07T12:45:12.092Z,44.64
2018-11-07T12:47:41.111Z,44.34
2018-11-07T12:50:14.432Z,43.60
2018-11-07T12:52:43.777Z,43.91
2018-11-07T12:55:12.717Z,42.28
2018-11-07T12:57:41.497Z,39.58
2018-11-07T13:00:20.091Z,35.96
2018-11-07T13:02:50.067Z,34.48
2018-11-07T13:05:19.872Z,32.52
2018-11-07T13:07:49.022Z,30.46
2018-11-07T13:10:18.796Z,29.54
2018-11-07T13:12:47.848Z,28.74
2018-11-07T13:15:16.848Z,27.94
2018-11-07T13:17:46.411Z,26.93
2018-11-07T13:20:17.965Z,25.26
2018-11-07T13:22:49.208Z,26.13
2018-11-07T13:25:18.182Z,25.31
2018-11-07T13:27:46.652Z,25.68
2018-11-07T13:30:20.947Z,25.44
2018-11-07T13:32:50.076Z,25.54
2018-11-07T13:35:19.371Z,26.89
2018-11-07T13:37:50.554Z,26.11
2018-11-07T13:40:23.635Z,24.84
2018-11-07T13:42:52.069Z,25.69
2018-11-07T13:45:21.701Z,24.88
2018-11-07T13:47:51.452Z,25.04
2018-11-07T13:50:20.521Z,26.34
2018-11-07T13:52:49.538Z,25.28
2018-11-07T13:55:18.054Z,24.20
2018-11-07T13:57:47.007Z,23.75
2018-11-07T14:00:20.149Z,22.73
2018-11-07T14:02:49.102Z,22.68
2018-11-07T14:05:17.797Z,22.35
2018-11-07T14:07:46.780Z,22.00
2018-11-07T14:10:20.450Z,22.85
2018-11-07T14:12:50.036Z,22.87
2018-11-07T14:15:18.561Z,25.95
2018-11-07T14:17:47.254Z,24.67
2018-11-07T14:20:15.936Z,25.23
2018-11-07T14:22:45.289Z,24.93
2018-11-07T14:25:15.104Z,23.43
2018-11-07T14:27:43.742Z,25.49
2018-11-07T14:30:14.171Z,23.77
2018-11-07T14:32:48.820Z,23.30
2018-11-07T14:35:17.544Z,25.05
2018-11-07T14:37:46.066Z,24.57
2018-11-07T14:40:14.516Z,25.58
2018-11-07T14:42:42.942Z,24.41
2018-11-07T14:45:12.130Z,24.53
2018-11-07T14:47:41.491Z,24.91
2018-11-07T14:50:13.354Z,24.25
2018-11-07T14:52:42.828Z,24.65
2018-11-07T14:55:12.123Z,25.95
2018-11-07T14:57:41.608Z,27.91
2018-11-07T15:00:13.471Z,25.23
2018-11-07T15:02:44.895Z,29.01
2018-11-07T15:05:14.456Z,32.45
2018-11-07T15:07:43.511Z,35.99
2018-11-07T15:10:13.750Z,40.58
2018-11-07T15:12:42.424Z,43.15
2018-11-07T15:15:13.077Z,45.52
2018-11-07T15:17:42.238Z,48.27
2018-11-07T15:20:12.496Z,50.08
2018-11-07T15:22:41.504Z,51.36
2018-11-07T15:25:11.120Z,52.08
2018-11-07T15:27:41.371Z,53.96
2018-11-07T15:30:11.116Z,55.17
2018-11-07T15:32:40.402Z,55.94
2018-11-07T15:35:09.718Z,56.40
2018-11-07T15:37:38.814Z,56.09
2018-11-07T15:40:11.403Z,56.67
2018-11-07T15:42:40.438Z,58.29
2018-11-07T15:45:10.325Z,59.30
2018-11-07T15:47:39.041Z,60.52
2018-11-07T15:50:13.085Z,61.46
2018-11-07T15:52:41.559Z,62.12
2018-11-07T15:55:10.031Z,61.23
2018-11-07T15:57:38.436Z,60.75
2018-11-07T16:00:11.016Z,60.83
2018-11-07T16:02:40.315Z,62.11
2018-11-07T16:05:09.821Z,63.36
2018-11-07T16:07:39.153Z,63.52
2018-11-07T16:10:09.654Z,63.59
2018-11-07T16:12:38.841Z,63.89
2018-11-07T16:15:10.875Z,64.88
2018-11-07T16:17:39.927Z,65.12
2018-11-07T16:20:11.356Z,67.53
2018-11-07T16:22:40.472Z,66.14
2018-11-07T16:25:09.244Z,66.49
2018-11-07T16:27:38.476Z,66.26
2018-11-07T16:30:10.402Z,66.91
2018-11-07T16:32:39.393Z,66.99
2018-11-07T16:35:08.522Z,67.83
2018-11-07T16:37:37.297Z,69.96
2018-11-07T16:40:09.080Z,68.89
2018-11-07T16:42:38.087Z,68.56
2018-11-07T16:45:09.106Z,68.36
2018-11-07T16:47:37.542Z,69.24
2018-11-07T16:50:09.223Z,69.60
2018-11-07T16:52:38.063Z,70.05
2018-11-07T16:55:07.590Z,72.33
2018-11-07T16:57:38.352Z,71.35
2018-11-07T17:00:15.473Z,71.63
2018-11-07T17:02:45.105Z,73.28
2018-11-07T17:05:14.719Z,72.39
2018-11-07T17:07:43.498Z,72.28
2018-11-07T17:10:12.631Z,71.67
2018-11-07T17:12:41.013Z,71.74
2018-11-07T17:15:09.430Z,73.30
2018-11-07T17:17:38.296Z,72.54
2018-11-07T17:20:09.532Z,72.71
2018-11-07T17:22:38.585Z,72.24
2018-11-07T17:25:09.939Z,72.51
2018-11-07T17:27:39.488Z,72.75
2018-11-07T17:30:10.004Z,72.76
2018-11-07T17:32:39.759Z,74.10
2018-11-07T17:35:11.042Z,73.67
2018-11-07T17:37:39.815Z,73.82
2018-11-07T17:40:12.696Z,74.67
2018-11-07T17:42:41.881Z,74.73
2018-11-07T17:45:13.844Z,76.17
2018-11-07T17:47:43.254Z,75.37
2018-11-07T17:50:13.205Z,75.40
2018-11-07T17:52:42.079Z,75.45
2018-11-07T17:55:12.754Z,75.67
2018-11-07T17:57:41.259Z,75.51
2018-11-07T18:00:14.133Z,76.26
2018-11-07T18:02:43.412Z,75.83
2018-11-07T18:05:12.038Z,75.85
2018-11-07T18:07:40.553Z,76.30
2018-11-07T18:10:11.935Z,77.38
2018-11-07T18:12:40.478Z,77.51
2018-11-07T18:15:09.713Z,74.20
2018-11-07T18:17:39.057Z,70.11
2018-11-07T18:20:09.966Z,69.50
2018-11-07T18:22:38.717Z,69.58
2018-11-07T18:25:09.962Z,70.66
2018-11-07T18:27:39.192Z,70.44
2018-11-07T18:30:10.424Z,69.86
2018-11-07T18:35:32.452Z,72.20
2018-11-07T18:38:01.164Z,74.15
2018-11-07T18:40:30.882Z,72.45
2018-11-07T18:43:01.168Z,74.00
2018-11-07T18:45:30.338Z,74.58
2018-11-07T18:47:58.823Z,74.52
2018-11-07T18:50:28.013Z,75.32
2018-11-07T18:52:56.489Z,73.01
2018-11-07T18:55:25.780Z,72.14
2018-11-07T18:57:54.863Z,74.44
2018-11-07T19:00:24.876Z,74.69
2018-11-07T19:02:54.324Z,75.11
2018-11-07T19:05:22.950Z,74.25
2018-11-07T19:07:51.445Z,73.91
2018-11-07T19:10:21.550Z,74.18
2018-11-07T19:12:50.756Z,75.88
2018-11-07T19:15:19.782Z,75.55
2018-11-07T19:17:49.464Z,74.98
2018-11-07T19:20:18.490Z,74.93
2018-11-07T19:22:47.124Z,75.26
2018-11-07T19:25:17.576Z,75.68
2018-11-07T19:27:46.618Z,74.91
2018-11-07T19:30:17.515Z,75.00
2018-11-07T19:32:47.521Z,76.69
2018-11-07T19:35:17.211Z,75.49
2018-11-07T19:37:46.988Z,75.55
2018-11-07T19:40:23.627Z,76.01
2018-11-07T19:42:52.117Z,76.11
2018-11-07T19:45:21.373Z,76.05
2018-11-07T19:47:50.082Z,74.76
2018-11-07T19:50:19.649Z,74.05
2018-11-07T19:52:48.930Z,74.59
2018-11-07T19:55:21.086Z,74.77
2018-11-07T19:57:54.880Z,76.46
2018-11-07T20:00:23.343Z,74.70
2018-11-07T20:02:51.917Z,74.14
2018-11-07T20:05:21.446Z,74.32
2018-11-07T20:07:51.096Z,73.68
2018-11-07T20:10:20.439Z,73.19
2018-11-07T20:12:50.310Z,72.98
2018-11-07T20:15:20.093Z,73.33
2018-11-07T20:17:49.603Z,73.20
2018-11-07T20:20:18.872Z,73.38
2018-11-07T20:22:47.794Z,75.04
2018-11-07T20:25:16.920Z,75.24
2018-11-07T20:27:45.739Z,74.67
2018-11-07T20:30:15.551Z,75.74
2018-11-07T20:32:44.058Z,75.27
2018-11-07T20:35:17.239Z,75.40
2018-11-07T20:37:46.086Z,74.51
2018-11-07T20:40:17.054Z,76.23
2018-11-07T20:42:45.507Z,75.93
2018-11-07T20:45:15.139Z,75.91
2018-11-07T20:47:43.555Z,75.09
2018-11-07T20:50:15.123Z,75.41
2018-11-07T20:52:44.400Z,74.75
2018-11-07T20:55:13.647Z,75.36
2018-11-07T20:57:42.438Z,75.78
2018-11-07T21:00:18.337Z,76.66
2018-11-07T21:02:47.353Z,76.66
2018-11-07T21:05:17.727Z,76.46
2018-11-07T21:07:46.419Z,76.08
2018-11-07T21:10:20.300Z,76.23
2018-11-07T21:12:49.293Z,77.61
2018-11-07T21:15:18.814Z,77.35
2018-11-07T21:17:47.569Z,77.49
2018-11-07T21:20:16.080Z,77.84
2018-11-07T21:22:45.503Z,78.13
2018-11-07T21:25:14.586Z,76.95
2018-11-07T21:27:43.544Z,78.26
2018-11-07T21:30:13.836Z,78.19
2018-11-07T21:32:43.717Z,77.01
2018-11-07T21:35:13.141Z,77.50
2018-11-07T21:37:42.740Z,76.98
2018-11-07T21:40:14.335Z,76.49
2018-11-07T21:42:43.098Z,76.50
2018-11-07T21:45:12.951Z,77.46
2018-11-07T21:47:42.216Z,77.32
2018-11-07T21:50:13.152Z,77.80
2018-11-07T21:52:41.987Z,78.63
2018-11-07T21:55:11.818Z,80.20
2018-11-07T21:57:41.133Z,78.31
2018-11-07T22:00:12.883Z,79.03
2018-11-07T22:02:42.399Z,79.53
2018-11-07T22:05:12.112Z,80.26
2018-11-07T22:07:41.336Z,79.99
2018-11-07T22:10:11.616Z,80.61
2018-11-07T22:12:40.355Z,79.47
2018-11-07T22:15:10.208Z,80.26
2018-11-07T22:17:39.231Z,81.10
2018-11-07T22:20:14.500Z,81.60
2018-11-07T22:22:43.670Z,81.89
2018-11-07T22:25:12.551Z,81.33
2018-11-07T22:27:41.986Z,81.15
2018-11-07T22:30:12.911Z,81.03
2018-11-07T22:32:42.287Z,78.88
2018-11-07T22:35:12.228Z,79.31
2018-11-07T22:37:41.641Z,80.58
2018-11-07T22:40:12.872Z,81.17
2018-11-07T22:42:41.476Z,79.52
2018-11-07T22:45:10.843Z,80.32
2018-11-07T22:47:40.451Z,81.27
2018-11-07T22:50:11.698Z,80.30
2018-11-07T22:52:41.711Z,81.12
2018-11-07T22:55:10.782Z,80.25
2018-11-07T22:57:46.415Z,79.62
2018-11-07T23:00:22.447Z,79.44
2018-11-07T23:02:53.017Z,79.75
2018-11-07T23:05:21.605Z,81.05
2018-11-07T23:07:51.449Z,82.27
2018-11-07T23:10:19.922Z,80.77
2018-11-07T23:12:49.701Z,80.43
2018-11-07T23:15:26.555Z,81.65
2018-11-07T23:17:55.149Z,81.74
2018-11-07T23:20:23.959Z,79.45
2018-11-07T23:22:52.928Z,80.20
2018-11-07T23:25:21.709Z,80.36
2018-11-07T23:27:51.030Z,80.42
2018-11-07T23:30:20.364Z,81.02
2018-11-07T23:32:49.629Z,81.20
2018-11-07T23:35:18.404Z,80.96
2018-11-07T23:37:46.921Z,80.54
2018-11-07T23:40:15.667Z,80.59
2018-11-07T23:42:44.693Z,80.64
2018-11-07T23:45:13.690Z,81.54
2018-11-07T23:47:43.098Z,80.21
2018-11-07T23:50:11.812Z,80.48
2018-11-07T23:52:46.956Z,80.06
2018-11-07T23:55:18.428Z,81.43
2018-11-07T23:57:47.368Z,81.15
